PWSweather.com
Personal Weather Stations
Station Observations
IBAVARIA50
Munich, PlieningDE 85652

MunichPlieningDE 85652

Lat: 48.19916153, Lon: 11.79794312

Elevation: 504

Station Type: Davis Vantage Pro2

http://wetterstation-pliening.info

High Low Average
Temperature 56.8°F13.8°C 52.0°F11.1°C 54.1°F12.3°C
Dew Point 47.8°F8.8°C 41.2°F5.1°C 43.5°F6.4°C
Winds 12.0 mph 19.3 kmh Calm Calm 2.0 mph WSW3.2 kmh WSW
Wind Gusts 16.0 mph25.7 kmh -- 6.0 mph9.7 kmh
Humidity 73% 64% 68%
Pressure 30.04 in1017.3 mb 29.94 in1013.9 mb -
Precipitation 0.41 in10.4 mm - -
Hour Temp Dew Point Humidity Winds Wind Gusts Pressure Precip Precip Rate Daily Precip Total
12:00 AM 52.4°F11.3°C 42.1°F5.6°C 68% Calm Calm 4.0 mph6.4 kmh 30.03 in1016.9 mb 0.00 in0.0 mm 0.00 in0.0 mm 0.00 in0.0 mm
12:05 AM 52.3°F11.3°C 42.0°F5.6°C 68% 1.0 mph WSW1.6 kmh WSW 3.0 mph4.8 kmh 30.03 in1016.9 mb 0.00 in0.0 mm 0.00 in0.0 mm 0.00 in0.0 mm
12:10 AM 52.3°F11.3°C 42.0°F5.6°C 68% Calm Calm 4.0 mph6.4 kmh 30.03 in1016.9 mb 0.00 in0.0 mm 0.00 in0.0 mm 0.00 in0.0 mm
12:15 AM 52.3°F11.3°C 42.0°F5.6°C 68% Calm Calm 4.0 mph6.4 kmh 30.03 in1016.9 mb 0.00 in0.0 mm 0.00 in0.0 mm 0.00 in0.0 mm
12:20 AM 52.3°F11.3°C 42.0°F5.6°C 68% 3.0 mph WSW4.8 kmh WSW 5.0 mph8.0 kmh 30.04 in1017.3 mb 0.00 in0.0 mm 0.00 in0.0 mm 0.00 in0.0 mm
12:25 AM 52.4°F11.3°C 42.1°F5.6°C 68% Calm Calm 4.0 mph6.4 kmh 30.03 in1016.9 mb 0.00 in0.0 mm 0.00 in0.0 mm 0.00 in0.0 mm
12:30 AM 52.4°F11.3°C 42.1°F5.6°C 68% Calm Calm 4.0 mph6.4 kmh 30.03 in1016.9 mb 0.00 in0.0 mm 0.00 in0.0 mm 0.00 in0.0 mm
12:35 AM 52.4°F11.3°C 41.7°F5.4°C 67% 3.0 mph WSW4.8 kmh WSW 3.0 mph4.8 kmh 30.03 in1016.9 mb 0.00 in0.0 mm 0.00 in0.0 mm 0.00 in0.0 mm
12:40 AM 52.4°F11.3°C 41.7°F5.4°C 67% 4.0 mph WSW6.4 kmh WSW 5.0 mph8.0 kmh 30.02 in1016.6 mb 0.00 in0.0 mm 0.00 in0.0 mm 0.00 in0.0 mm
12:45 AM 52.4°F11.3°C 41.7°F5.4°C 67% 2.0 mph WSW3.2 kmh WSW 5.0 mph8.0 kmh 30.01 in1016.3 mb 0.00 in0.0 mm 0.00 in0.0 mm 0.00 in0.0 mm
12:50 AM 52.4°F11.3°C 42.1°F5.6°C 68% 1.0 mph WSW1.6 kmh WSW 4.0 mph6.4 kmh 30.01 in1016.3 mb 0.00 in0.0 mm 0.00 in0.0 mm 0.00 in0.0 mm
12:55 AM 52.4°F11.3°C 41.7°F5.4°C 67% 1.0 mph WSW1.6 kmh WSW 4.0 mph6.4 kmh 30.01 in1016.3 mb 0.00 in0.0 mm 0.00 in0.0 mm 0.00 in0.0 mm
01:00 AM 52.4°F11.3°C 41.7°F5.4°C 67% 2.0 mph WSW3.2 kmh WSW 3.0 mph4.8 kmh 30.01 in1016.3 mb 0.00 in0.0 mm 0.00 in0.0 mm 0.00 in0.0 mm
01:05 AM 52.4°F11.3°C 41.7°F5.4°C 67% Calm Calm 2.0 mph3.2 kmh 30.01 in1016.3 mb 0.00 in0.0 mm 0.00 in0.0 mm 0.00 in0.0 mm
01:10 AM 52.4°F11.3°C 41.7°F5.4°C 67% 1.0 mph WSW1.6 kmh WSW 6.0 mph9.7 kmh 30.00 in1015.9 mb 0.00 in0.0 mm 0.00 in0.0 mm 0.00 in0.0 mm
01:15 AM 52.5°F11.4°C 41.8°F5.4°C 67% Calm Calm 3.0 mph4.8 kmh 30.01 in1016.3 mb 0.00 in0.0 mm 0.00 in0.0 mm 0.00 in0.0 mm
01:20 AM 52.6°F11.4°C 41.9°F5.5°C 67% Calm Calm 4.0 mph6.4 kmh 30.00 in1015.9 mb 0.00 in0.0 mm 0.00 in0.0 mm 0.00 in0.0 mm
01:25 AM 52.6°F11.4°C 41.9°F5.5°C 67% 3.0 mph WSW4.8 kmh WSW 5.0 mph8.0 kmh 30.00 in1015.9 mb 0.00 in0.0 mm 0.00 in0.0 mm 0.00 in0.0 mm
01:30 AM 52.6°F11.4°C 41.9°F5.5°C 67% 4.0 mph WSW6.4 kmh WSW 5.0 mph8.0 kmh 30.01 in1016.3 mb 0.00 in0.0 mm 0.00 in0.0 mm 0.00 in0.0 mm
01:35 AM 52.5°F11.4°C 41.8°F5.4°C 67% 4.0 mph WSW6.4 kmh WSW 7.0 mph11.3 kmh 30.01 in1016.3 mb 0.00 in0.0 mm 0.00 in0.0 mm 0.00 in0.0 mm
01:40 AM 52.5°F11.4°C 41.8°F5.4°C 67% 2.0 mph WSW3.2 kmh WSW 7.0 mph11.3 kmh 30.01 in1016.3 mb 0.00 in0.0 mm 0.00 in0.0 mm 0.00 in0.0 mm
01:45 AM 52.5°F11.4°C 41.8°F5.4°C 67% 2.0 mph WSW3.2 kmh WSW 7.0 mph11.3 kmh 30.01 in1016.3 mb 0.00 in0.0 mm 0.00 in0.0 mm 0.00 in0.0 mm
01:50 AM 52.4°F11.3°C 41.7°F5.4°C 67% 3.0 mph WSW4.8 kmh WSW 7.0 mph11.3 kmh 30.01 in1016.3 mb 0.00 in0.0 mm 0.00 in0.0 mm 0.00 in0.0 mm
01:55 AM 52.4°F11.3°C 41.7°F5.4°C 67% 3.0 mph W4.8 kmh W 7.0 mph11.3 kmh 30.01 in1016.3 mb 0.00 in0.0 mm 0.00 in0.0 mm 0.00 in0.0 mm
02:00 AM 52.5°F11.4°C 41.8°F5.4°C 67% 1.0 mph WSW1.6 kmh WSW 12.0 mph19.3 kmh 30.01 in1016.3 mb 0.00 in0.0 mm 0.00 in0.0 mm 0.00 in0.0 mm
02:05 AM 52.5°F11.4°C 41.8°F5.4°C 67% 1.0 mph SW1.6 kmh SW 5.0 mph8.0 kmh 30.01 in1016.3 mb 0.00 in0.0 mm 0.00 in0.0 mm 0.00 in0.0 mm
02:10 AM 52.5°F11.4°C 41.8°F5.4°C 67% 4.0 mph WSW6.4 kmh WSW 7.0 mph11.3 kmh 30.02 in1016.6 mb 0.00 in0.0 mm 0.00 in0.0 mm 0.00 in0.0 mm
02:15 AM 52.6°F11.4°C 41.9°F5.5°C 67% 1.0 mph SW1.6 kmh SW 11.0 mph17.7 kmh 30.03 in1016.9 mb 0.00 in0.0 mm 0.00 in0.0 mm 0.00 in0.0 mm
02:20 AM 52.5°F11.4°C 41.8°F5.4°C 67% 5.0 mph WSW8.0 kmh WSW 14.0 mph22.5 kmh 30.03 in1016.9 mb 0.02 in0.5 mm 0.24 in6.1 mm 0.02 in0.5 mm
02:25 AM 52.5°F11.4°C 41.8°F5.4°C 67% 9.0 mph SW14.5 kmh SW 11.0 mph17.7 kmh 30.04 in1017.3 mb 0.02 in0.5 mm 0.00 in0.0 mm 0.02 in0.5 mm
02:30 AM 52.4°F11.3°C 41.7°F5.4°C 67% 2.0 mph SW3.2 kmh SW 13.0 mph20.9 kmh 30.04 in1017.3 mb 0.06 in1.5 mm 0.48 in12.2 mm 0.06 in1.5 mm
02:35 AM 52.4°F11.3°C 41.7°F5.4°C 67% 2.0 mph WSW3.2 kmh WSW 6.0 mph9.7 kmh 30.02 in1016.6 mb 0.07 in1.8 mm 0.12 in3.0 mm 0.07 in1.8 mm
02:40 AM 52.3°F11.3°C 42.0°F5.6°C 68% 2.0 mph WSW3.2 kmh WSW 7.0 mph11.3 kmh 30.01 in1016.3 mb 0.09 in2.3 mm 0.24 in6.1 mm 0.09 in2.3 mm
02:45 AM 52.2°F11.2°C 41.5°F5.3°C 67% Calm Calm 5.0 mph8.0 kmh 30.01 in1016.3 mb 0.09 in2.3 mm 0.00 in0.0 mm 0.09 in2.3 mm
02:50 AM 52.2°F11.2°C 41.5°F5.3°C 67% 3.0 mph WSW4.8 kmh WSW 4.0 mph6.4 kmh 30.00 in1015.9 mb 0.09 in2.3 mm 0.00 in0.0 mm 0.09 in2.3 mm
02:55 AM 52.2°F11.2°C 41.5°F5.3°C 67% 2.0 mph WSW3.2 kmh WSW 3.0 mph4.8 kmh 30.00 in1015.9 mb 0.09 in2.3 mm 0.00 in0.0 mm 0.09 in2.3 mm
03:00 AM 52.2°F11.2°C 41.5°F5.3°C 67% Calm Calm 3.0 mph4.8 kmh 29.99 in1015.6 mb 0.09 in2.3 mm 0.00 in0.0 mm 0.09 in2.3 mm
03:05 AM 52.1°F11.2°C 41.4°F5.2°C 67% Calm Calm 4.0 mph6.4 kmh 30.00 in1015.9 mb 0.09 in2.3 mm 0.00 in0.0 mm 0.09 in2.3 mm
03:10 AM 52.1°F11.2°C 41.4°F5.2°C 67% Calm Calm 1.0 mph1.6 kmh 30.00 in1015.9 mb 0.09 in2.3 mm 0.00 in0.0 mm 0.09 in2.3 mm
03:15 AM 52.1°F11.2°C 41.4°F5.2°C 67% Calm Calm -- 30.01 in1016.3 mb 0.09 in2.3 mm 0.00 in0.0 mm 0.09 in2.3 mm
03:20 AM 52.1°F11.2°C 41.4°F5.2°C 67% 1.0 mph WSW1.6 kmh WSW 1.0 mph1.6 kmh 30.01 in1016.3 mb 0.08 in2.0 mm 0.00 in0.0 mm 0.09 in2.3 mm
03:25 AM 52.1°F11.2°C 41.4°F5.2°C 67% Calm Calm 2.0 mph3.2 kmh 30.00 in1015.9 mb 0.08 in2.0 mm 0.00 in0.0 mm 0.09 in2.3 mm
03:30 AM 52.1°F11.2°C 41.4°F5.2°C 67% Calm Calm -- 30.00 in1015.9 mb 0.04 in1.0 mm 0.00 in0.0 mm 0.09 in2.3 mm
03:35 AM 52.2°F11.2°C 41.5°F5.3°C 67% Calm Calm 4.0 mph6.4 kmh 30.01 in1016.3 mb 0.03 in0.8 mm 0.00 in0.0 mm 0.10 in2.5 mm
03:40 AM 52.2°F11.2°C 41.5°F5.3°C 67% Calm Calm 4.0 mph6.4 kmh 30.00 in1015.9 mb 0.02 in0.5 mm 0.00 in0.0 mm 0.11 in2.8 mm
03:45 AM 52.2°F11.2°C 41.5°F5.3°C 67% Calm Calm 4.0 mph6.4 kmh 29.99 in1015.6 mb 0.04 in1.0 mm 0.24 in6.1 mm 0.13 in3.3 mm
03:50 AM 52.1°F11.2°C 41.4°F5.2°C 67% Calm Calm 5.0 mph8.0 kmh 29.99 in1015.6 mb 0.04 in1.0 mm 0.00 in0.0 mm 0.13 in3.3 mm
03:55 AM 52.1°F11.2°C 41.4°F5.2°C 67% Calm Calm 3.0 mph4.8 kmh 29.98 in1015.2 mb 0.04 in1.0 mm 0.00 in0.0 mm 0.13 in3.3 mm
04:00 AM 52.0°F11.1°C 41.3°F5.2°C 67% Calm Calm -- 29.99 in1015.6 mb 0.04 in1.0 mm 0.00 in0.0 mm 0.13 in3.3 mm
04:05 AM 52.0°F11.1°C 41.3°F5.2°C 67% Calm Calm -- 30.00 in1015.9 mb 0.04 in1.0 mm 0.00 in0.0 mm 0.13 in3.3 mm
04:10 AM 52.1°F11.2°C 41.4°F5.2°C 67% Calm Calm 2.0 mph3.2 kmh 29.99 in1015.6 mb 0.04 in1.0 mm 0.00 in0.0 mm 0.13 in3.3 mm
04:15 AM 52.2°F11.2°C 41.5°F5.3°C 67% 6.0 mph WSW9.7 kmh WSW 6.0 mph9.7 kmh 29.99 in1015.6 mb 0.04 in1.0 mm 0.00 in0.0 mm 0.13 in3.3 mm
04:20 AM 52.1°F11.2°C 41.4°F5.2°C 67% 4.0 mph W6.4 kmh W 6.0 mph9.7 kmh 29.99 in1015.6 mb 0.04 in1.0 mm 0.00 in0.0 mm 0.13 in3.3 mm
04:25 AM 52.1°F11.2°C 41.4°F5.2°C 67% 1.0 mph SW1.6 kmh SW 6.0 mph9.7 kmh 29.99 in1015.6 mb 0.04 in1.0 mm 0.00 in0.0 mm 0.13 in3.3 mm
04:30 AM 52.1°F11.2°C 41.4°F5.2°C 67% 4.0 mph WSW6.4 kmh WSW 7.0 mph11.3 kmh 30.00 in1015.9 mb 0.04 in1.0 mm 0.00 in0.0 mm 0.13 in3.3 mm
04:35 AM 52.1°F11.2°C 41.4°F5.2°C 67% Calm Calm 6.0 mph9.7 kmh 29.99 in1015.6 mb 0.03 in0.8 mm 0.00 in0.0 mm 0.13 in3.3 mm
04:40 AM 52.1°F11.2°C 41.4°F5.2°C 67% 4.0 mph SW6.4 kmh SW 9.0 mph14.5 kmh 29.99 in1015.6 mb 0.03 in0.8 mm 0.00 in0.0 mm 0.14 in3.6 mm
04:45 AM 52.1°F11.2°C 41.4°F5.2°C 67% 6.0 mph WSW9.7 kmh WSW 10.0 mph16.1 kmh 30.00 in1015.9 mb 0.02 in0.5 mm 0.00 in0.0 mm 0.14 in3.6 mm
04:50 AM 52.0°F11.1°C 41.3°F5.2°C 67% 5.0 mph WSW8.0 kmh WSW 12.0 mph19.3 kmh 30.00 in1015.9 mb 0.01 in0.3 mm 0.00 in0.0 mm 0.14 in3.6 mm
04:55 AM 52.0°F11.1°C 41.3°F5.2°C 67% 5.0 mph SW8.0 kmh SW 7.0 mph11.3 kmh 30.00 in1015.9 mb 0.02 in0.5 mm 0.12 in3.0 mm 0.15 in3.8 mm
05:00 AM 52.0°F11.1°C 41.3°F5.2°C 67% 1.0 mph WSW1.6 kmh WSW 6.0 mph9.7 kmh 29.99 in1015.6 mb 0.02 in0.5 mm 0.00 in0.0 mm 0.15 in3.8 mm
05:05 AM 52.0°F11.1°C 41.3°F5.2°C 67% 3.0 mph WSW4.8 kmh WSW 9.0 mph14.5 kmh 29.98 in1015.2 mb 0.02 in0.5 mm 0.00 in0.0 mm 0.15 in3.8 mm
05:10 AM 52.0°F11.1°C 41.3°F5.2°C 67% 3.0 mph W4.8 kmh W 10.0 mph16.1 kmh 29.98 in1015.2 mb 0.02 in0.5 mm 0.00 in0.0 mm 0.15 in3.8 mm
05:15 AM 52.0°F11.1°C 41.3°F5.2°C 67% 3.0 mph W4.8 kmh W 6.0 mph9.7 kmh 29.99 in1015.6 mb 0.02 in0.5 mm 0.00 in0.0 mm 0.15 in3.8 mm
05:20 AM 52.0°F11.1°C 41.3°F5.2°C 67% 4.0 mph WSW6.4 kmh WSW 9.0 mph14.5 kmh 30.00 in1015.9 mb 0.02 in0.5 mm 0.00 in0.0 mm 0.16 in4.1 mm
05:25 AM 52.0°F11.1°C 41.3°F5.2°C 67% 1.0 mph SW1.6 kmh SW 7.0 mph11.3 kmh 30.00 in1015.9 mb 0.02 in0.5 mm 0.00 in0.0 mm 0.16 in4.1 mm
05:30 AM 52.0°F11.1°C 41.3°F5.2°C 67% Calm Calm 9.0 mph14.5 kmh 29.99 in1015.6 mb 0.02 in0.5 mm 0.00 in0.0 mm 0.16 in4.1 mm
05:35 AM 52.0°F11.1°C 41.3°F5.2°C 67% Calm Calm 7.0 mph11.3 kmh 29.99 in1015.6 mb 0.02 in0.5 mm 0.00 in0.0 mm 0.16 in4.1 mm
05:40 AM 52.0°F11.1°C 41.3°F5.2°C 67% 5.0 mph W8.0 kmh W 8.0 mph12.9 kmh 30.00 in1015.9 mb 0.02 in0.5 mm 0.00 in0.0 mm 0.16 in4.1 mm
05:45 AM 52.1°F11.2°C 41.4°F5.2°C 67% 2.0 mph WSW3.2 kmh WSW 7.0 mph11.3 kmh 30.01 in1016.3 mb 0.02 in0.5 mm 0.00 in0.0 mm 0.17 in4.3 mm
05:50 AM 52.1°F11.2°C 41.4°F5.2°C 67% 3.0 mph SW4.8 kmh SW 6.0 mph9.7 kmh 30.00 in1015.9 mb 0.03 in0.8 mm 0.12 in3.0 mm 0.17 in4.3 mm
05:55 AM 52.1°F11.2°C 41.4°F5.2°C 67% 4.0 mph SW6.4 kmh SW 5.0 mph8.0 kmh 29.99 in1015.6 mb 0.03 in0.8 mm 0.00 in0.0 mm 0.18 in4.6 mm
06:00 AM 52.1°F11.2°C 41.4°F5.2°C 67% Calm Calm 4.0 mph6.4 kmh 29.99 in1015.6 mb 0.05 in1.3 mm 0.02 in0.5 mm 0.20 in5.1 mm
06:05 AM 52.1°F11.2°C 41.4°F5.2°C 67% Calm Calm 4.0 mph6.4 kmh 30.00 in1015.9 mb 0.06 in1.5 mm 0.12 in3.0 mm 0.20 in5.1 mm
06:10 AM 52.1°F11.2°C 41.4°F5.2°C 67% Calm Calm 4.0 mph6.4 kmh 29.98 in1015.2 mb 0.07 in1.8 mm 0.12 in3.0 mm 0.22 in5.6 mm
06:15 AM 52.2°F11.2°C 41.5°F5.3°C 67% Calm Calm -- 29.98 in1015.2 mb 0.08 in2.0 mm 0.12 in3.0 mm 0.23 in5.8 mm
06:20 AM 52.3°F11.3°C 41.6°F5.3°C 67% Calm Calm -- 29.98 in1015.2 mb 0.08 in2.0 mm 0.00 in0.0 mm 0.24 in6.1 mm
06:25 AM 52.3°F11.3°C 41.6°F5.3°C 67% Calm Calm -- 29.99 in1015.6 mb 0.08 in2.0 mm 0.00 in0.0 mm 0.24 in6.1 mm
06:30 AM 52.3°F11.3°C 41.6°F5.3°C 67% 5.0 mph SW8.0 kmh SW 5.0 mph8.0 kmh 29.99 in1015.6 mb 0.09 in2.3 mm 0.12 in3.0 mm 0.24 in6.1 mm
06:35 AM 52.3°F11.3°C 41.6°F5.3°C 67% Calm Calm 6.0 mph9.7 kmh 29.99 in1015.6 mb 0.09 in2.3 mm 0.00 in0.0 mm 0.24 in6.1 mm
06:40 AM 52.3°F11.3°C 41.6°F5.3°C 67% Calm Calm 5.0 mph8.0 kmh 29.99 in1015.6 mb 0.09 in2.3 mm 0.00 in0.0 mm 0.24 in6.1 mm
06:45 AM 52.4°F11.3°C 41.3°F5.2°C 66% Calm Calm 4.0 mph6.4 kmh 29.98 in1015.2 mb 0.08 in2.0 mm 0.00 in0.0 mm 0.24 in6.1 mm
06:50 AM 52.3°F11.3°C 41.2°F5.1°C 66% Calm Calm -- 29.98 in1015.2 mb 0.07 in1.8 mm 0.00 in0.0 mm 0.24 in6.1 mm
06:55 AM 52.4°F11.3°C 41.3°F5.2°C 66% Calm Calm 3.0 mph4.8 kmh 29.98 in1015.2 mb 0.06 in1.5 mm 0.00 in0.0 mm 0.24 in6.1 mm
07:00 AM 52.4°F11.3°C 41.3°F5.2°C 66% Calm Calm -- 29.98 in1015.2 mb 0.05 in1.3 mm 0.00 in0.0 mm 0.24 in6.1 mm
07:05 AM 52.4°F11.3°C 41.3°F5.2°C 66% Calm Calm 4.0 mph6.4 kmh 29.98 in1015.2 mb 0.04 in1.0 mm 0.00 in0.0 mm 0.24 in6.1 mm
07:10 AM 52.5°F11.4°C 41.4°F5.2°C 66% Calm Calm 6.0 mph9.7 kmh 29.99 in1015.6 mb 0.02 in0.5 mm 0.00 in0.0 mm 0.24 in6.1 mm
07:15 AM 52.5°F11.4°C 41.4°F5.2°C 66% Calm Calm 5.0 mph8.0 kmh 30.00 in1015.9 mb 0.02 in0.5 mm 0.00 in0.0 mm 0.24 in6.1 mm
07:20 AM 52.5°F11.4°C 41.4°F5.2°C 66% Calm Calm -- 29.99 in1015.6 mb 0.02 in0.5 mm 0.00 in0.0 mm 0.25 in6.4 mm
07:25 AM 52.4°F11.3°C 41.3°F5.2°C 66% Calm Calm 3.0 mph4.8 kmh 29.97 in1014.9 mb 0.02 in0.5 mm 0.00 in0.0 mm 0.25 in6.4 mm
07:30 AM 52.5°F11.4°C 41.4°F5.2°C 66% Calm Calm 5.0 mph8.0 kmh 29.98 in1015.2 mb 0.01 in0.3 mm 0.00 in0.0 mm 0.25 in6.4 mm
07:35 AM 52.5°F11.4°C 41.4°F5.2°C 66% Calm Calm 3.0 mph4.8 kmh 29.98 in1015.2 mb 0.02 in0.5 mm 0.12 in3.0 mm 0.26 in6.6 mm
07:40 AM 52.6°F11.4°C 41.5°F5.3°C 66% Calm Calm 3.0 mph4.8 kmh 29.98 in1015.2 mb 0.02 in0.5 mm 0.00 in0.0 mm 0.26 in6.6 mm
07:45 AM 52.6°F11.4°C 41.5°F5.3°C 66% Calm Calm -- 29.98 in1015.2 mb 0.02 in0.5 mm 0.00 in0.0 mm 0.26 in6.6 mm
07:50 AM 52.7°F11.5°C 41.6°F5.3°C 66% 1.0 mph SSW1.6 kmh SSW 3.0 mph4.8 kmh 29.99 in1015.6 mb 0.02 in0.5 mm 0.00 in0.0 mm 0.27 in6.9 mm
07:55 AM 52.7°F11.5°C 41.6°F5.3°C 66% 3.0 mph SW4.8 kmh SW 6.0 mph9.7 kmh 29.99 in1015.6 mb 0.02 in0.5 mm 0.00 in0.0 mm 0.27 in6.9 mm
08:00 AM 52.7°F11.5°C 41.6°F5.3°C 66% 3.0 mph SW4.8 kmh SW 5.0 mph8.0 kmh 29.99 in1015.6 mb 0.02 in0.5 mm 0.00 in0.0 mm 0.27 in6.9 mm
08:05 AM 52.6°F11.4°C 41.5°F5.3°C 66% Calm Calm 2.0 mph3.2 kmh 29.98 in1015.2 mb 0.02 in0.5 mm 0.00 in0.0 mm 0.27 in6.9 mm
08:10 AM 52.6°F11.4°C 41.5°F5.3°C 66% Calm Calm 4.0 mph6.4 kmh 29.99 in1015.6 mb 0.03 in0.8 mm 0.12 in3.0 mm 0.28 in7.1 mm
08:15 AM 52.7°F11.5°C 41.6°F5.3°C 66% Calm Calm 4.0 mph6.4 kmh 29.98 in1015.2 mb 0.05 in1.3 mm 0.24 in6.1 mm 0.29 in7.4 mm
08:20 AM 52.6°F11.4°C 41.5°F5.3°C 66% Calm Calm 2.0 mph3.2 kmh 29.98 in1015.2 mb 0.05 in1.3 mm 0.00 in0.0 mm 0.29 in7.4 mm
08:25 AM 52.6°F11.4°C 41.5°F5.3°C 66% Calm Calm -- 29.98 in1015.2 mb 0.05 in1.3 mm 0.00 in0.0 mm 0.30 in7.6 mm
08:30 AM 52.6°F11.4°C 41.5°F5.3°C 66% Calm Calm -- 29.98 in1015.2 mb 0.05 in1.3 mm 0.00 in0.0 mm 0.30 in7.6 mm
08:35 AM 52.7°F11.5°C 41.6°F5.3°C 66% Calm Calm -- 29.98 in1015.2 mb 0.05 in1.3 mm 0.00 in0.0 mm 0.31 in7.9 mm
08:40 AM 52.8°F11.6°C 41.7°F5.4°C 66% Calm Calm -- 29.98 in1015.2 mb 0.05 in1.3 mm 0.00 in0.0 mm 0.31 in7.9 mm
08:45 AM 52.9°F11.6°C 41.8°F5.4°C 66% Calm Calm -- 29.99 in1015.6 mb 0.05 in1.3 mm 0.00 in0.0 mm 0.31 in7.9 mm
08:50 AM 52.9°F11.6°C 41.8°F5.4°C 66% Calm Calm -- 29.98 in1015.2 mb 0.04 in1.0 mm 0.00 in0.0 mm 0.31 in7.9 mm
08:55 AM 53.0°F11.7°C 41.9°F5.5°C 66% Calm Calm -- 29.97 in1014.9 mb 0.04 in1.0 mm 0.00 in0.0 mm 0.31 in7.9 mm
09:00 AM 53.0°F11.7°C 41.9°F5.5°C 66% Calm Calm -- 29.98 in1015.2 mb 0.05 in1.3 mm 0.01 in0.3 mm 0.31 in7.9 mm
09:05 AM 53.0°F11.7°C 41.9°F5.5°C 66% Calm Calm 1.0 mph1.6 kmh 29.98 in1015.2 mb 0.06 in1.5 mm 0.12 in3.0 mm 0.32 in8.1 mm
09:10 AM 53.0°F11.7°C 41.9°F5.5°C 66% Calm Calm 4.0 mph6.4 kmh 29.99 in1015.6 mb 0.06 in1.5 mm 0.00 in0.0 mm 0.33 in8.4 mm
09:15 AM 53.0°F11.7°C 41.9°F5.5°C 66% Calm Calm -- 29.99 in1015.6 mb 0.05 in1.3 mm 0.00 in0.0 mm 0.34 in8.6 mm
09:20 AM 53.0°F11.7°C 41.9°F5.5°C 66% Calm Calm -- 29.98 in1015.2 mb 0.04 in1.0 mm 0.00 in0.0 mm 0.34 in8.6 mm
09:25 AM 53.2°F11.8°C 42.1°F5.6°C 66% Calm Calm -- 29.98 in1015.2 mb 0.05 in1.3 mm 0.12 in3.0 mm 0.35 in8.9 mm
09:30 AM 53.1°F11.7°C 42.0°F5.6°C 66% Calm Calm 3.0 mph4.8 kmh 29.99 in1015.6 mb 0.05 in1.3 mm 0.00 in0.0 mm 0.35 in8.9 mm
09:35 AM 53.0°F11.7°C 41.9°F5.5°C 66% Calm Calm -- 29.99 in1015.6 mb 0.04 in1.0 mm 0.00 in0.0 mm 0.35 in8.9 mm
09:40 AM 53.0°F11.7°C 41.9°F5.5°C 66% Calm Calm -- 29.99 in1015.6 mb 0.05 in1.3 mm 0.12 in3.0 mm 0.35 in8.9 mm
09:45 AM 53.1°F11.7°C 42.0°F5.6°C 66% Calm Calm -- 29.98 in1015.2 mb 0.05 in1.3 mm 0.00 in0.0 mm 0.35 in8.9 mm
09:50 AM 53.1°F11.7°C 42.0°F5.6°C 66% Calm Calm -- 29.97 in1014.9 mb 0.05 in1.3 mm 0.00 in0.0 mm 0.35 in8.9 mm
09:55 AM 53.1°F11.7°C 42.0°F5.6°C 66% Calm Calm 7.0 mph11.3 kmh 29.97 in1014.9 mb 0.05 in1.3 mm 0.00 in0.0 mm 0.35 in8.9 mm
10:00 AM 53.2°F11.8°C 42.1°F5.6°C 66% 3.0 mph WSW4.8 kmh WSW 4.0 mph6.4 kmh 29.97 in1014.9 mb 0.05 in1.3 mm 0.00 in0.0 mm 0.36 in9.1 mm
10:05 AM 53.4°F11.9°C 42.3°F5.7°C 66% 3.0 mph SW4.8 kmh SW 6.0 mph9.7 kmh 29.98 in1015.2 mb 0.04 in1.0 mm 0.00 in0.0 mm 0.36 in9.1 mm
10:10 AM 53.5°F11.9°C 42.4°F5.8°C 66% Calm Calm 5.0 mph8.0 kmh 29.98 in1015.2 mb 0.03 in0.8 mm 0.00 in0.0 mm 0.36 in9.1 mm
10:15 AM 53.5°F11.9°C 42.4°F5.8°C 66% Calm Calm 3.0 mph4.8 kmh 29.98 in1015.2 mb 0.02 in0.5 mm 0.00 in0.0 mm 0.36 in9.1 mm
10:20 AM 53.5°F11.9°C 42.4°F5.8°C 66% Calm Calm -- 29.98 in1015.2 mb 0.02 in0.5 mm 0.00 in0.0 mm 0.36 in9.1 mm
10:25 AM 53.6°F12.0°C 42.1°F5.6°C 65% Calm Calm -- 29.98 in1015.2 mb 0.02 in0.5 mm 0.00 in0.0 mm 0.36 in9.1 mm
10:30 AM 53.6°F12.0°C 42.1°F5.6°C 65% Calm Calm 6.0 mph9.7 kmh 29.97 in1014.9 mb 0.02 in0.5 mm 0.00 in0.0 mm 0.36 in9.1 mm
10:35 AM 53.6°F12.0°C 42.1°F5.6°C 65% Calm Calm 2.0 mph3.2 kmh 29.97 in1014.9 mb 0.02 in0.5 mm 0.00 in0.0 mm 0.36 in9.1 mm
10:40 AM 53.7°F12.1°C 42.2°F5.7°C 65% Calm Calm -- 29.97 in1014.9 mb 0.01 in0.3 mm 0.00 in0.0 mm 0.36 in9.1 mm
10:45 AM 53.7°F12.1°C 42.2°F5.7°C 65% Calm Calm 3.0 mph4.8 kmh 29.97 in1014.9 mb 0.01 in0.3 mm 0.00 in0.0 mm 0.36 in9.1 mm
10:50 AM 53.8°F12.1°C 42.3°F5.7°C 65% Calm Calm 6.0 mph9.7 kmh 29.97 in1014.9 mb 0.01 in0.3 mm 0.00 in0.0 mm 0.36 in9.1 mm
10:55 AM 53.9°F12.2°C 42.4°F5.8°C 65% 1.0 mph W1.6 kmh W 5.0 mph8.0 kmh 29.97 in1014.9 mb 0.01 in0.3 mm 0.00 in0.0 mm 0.36 in9.1 mm
11:00 AM 53.9°F12.2°C 42.4°F5.8°C 65% 4.0 mph W6.4 kmh W 6.0 mph9.7 kmh 29.98 in1015.2 mb 0.00 in0.0 mm 0.00 in0.0 mm 0.36 in9.1 mm
11:05 AM 53.9°F12.2°C 42.4°F5.8°C 65% 1.0 mph W1.6 kmh W 7.0 mph11.3 kmh 29.98 in1015.2 mb 0.00 in0.0 mm 0.00 in0.0 mm 0.36 in9.1 mm
11:10 AM 54.0°F12.2°C 42.5°F5.8°C 65% Calm Calm 6.0 mph9.7 kmh 29.98 in1015.2 mb 0.00 in0.0 mm 0.00 in0.0 mm 0.36 in9.1 mm
11:15 AM 54.1°F12.3°C 42.5°F5.8°C 65% 3.0 mph SW4.8 kmh SW 8.0 mph12.9 kmh 29.98 in1015.2 mb 0.00 in0.0 mm 0.00 in0.0 mm 0.36 in9.1 mm
11:20 AM 54.1°F12.3°C 42.5°F5.8°C 65% 7.0 mph SW11.3 kmh SW 7.0 mph11.3 kmh 29.98 in1015.2 mb 0.00 in0.0 mm 0.00 in0.0 mm 0.36 in9.1 mm
11:25 AM 54.1°F12.3°C 42.5°F5.8°C 65% Calm Calm 7.0 mph11.3 kmh 29.98 in1015.2 mb 0.00 in0.0 mm 0.00 in0.0 mm 0.36 in9.1 mm
11:30 AM 54.2°F12.3°C 42.6°F5.9°C 65% Calm Calm 3.0 mph4.8 kmh 29.98 in1015.2 mb 0.00 in0.0 mm 0.00 in0.0 mm 0.36 in9.1 mm
11:35 AM 54.3°F12.4°C 42.7°F5.9°C 65% Calm Calm 6.0 mph9.7 kmh 29.98 in1015.2 mb 0.00 in0.0 mm 0.00 in0.0 mm 0.36 in9.1 mm
11:40 AM 54.3°F12.4°C 42.7°F5.9°C 65% Calm Calm 5.0 mph8.0 kmh 29.98 in1015.2 mb 0.00 in0.0 mm 0.00 in0.0 mm 0.36 in9.1 mm
11:45 AM 54.2°F12.3°C 42.6°F5.9°C 65% Calm Calm 5.0 mph8.0 kmh 29.98 in1015.2 mb 0.00 in0.0 mm 0.00 in0.0 mm 0.36 in9.1 mm
11:50 AM 54.4°F12.4°C 42.8°F6.0°C 65% 4.0 mph SW6.4 kmh SW 6.0 mph9.7 kmh 29.97 in1014.9 mb 0.00 in0.0 mm 0.00 in0.0 mm 0.36 in9.1 mm
11:55 AM 54.4°F12.4°C 42.8°F6.0°C 65% 2.0 mph NW3.2 kmh NW 7.0 mph11.3 kmh 29.97 in1014.9 mb 0.00 in0.0 mm 0.00 in0.0 mm 0.36 in9.1 mm
12:00 PM 54.3°F12.4°C 42.7°F5.9°C 65% Calm Calm 7.0 mph11.3 kmh 29.96 in1014.6 mb 0.01 in0.3 mm 0.01 in0.3 mm 0.37 in9.4 mm
12:05 PM 54.3°F12.4°C 42.7°F5.9°C 65% Calm Calm -- 29.95 in1014.2 mb 0.01 in0.3 mm 0.00 in0.0 mm 0.37 in9.4 mm
12:10 PM 54.1°F12.3°C 42.5°F5.8°C 65% Calm Calm 2.0 mph3.2 kmh 29.94 in1013.9 mb 0.01 in0.3 mm 0.00 in0.0 mm 0.37 in9.4 mm
12:15 PM 54.1°F12.3°C 42.5°F5.8°C 65% Calm Calm -- 29.94 in1013.9 mb 0.02 in0.5 mm 0.12 in3.0 mm 0.38 in9.7 mm
12:20 PM 54.2°F12.3°C 42.6°F5.9°C 65% Calm Calm -- 29.95 in1014.2 mb 0.02 in0.5 mm 0.00 in0.0 mm 0.38 in9.7 mm
12:25 PM 54.3°F12.4°C 42.7°F5.9°C 65% Calm Calm -- 29.96 in1014.6 mb 0.02 in0.5 mm 0.00 in0.0 mm 0.38 in9.7 mm
12:30 PM 54.4°F12.4°C 42.8°F6.0°C 65% 2.0 mph WSW3.2 kmh WSW 4.0 mph6.4 kmh 29.96 in1014.6 mb 0.02 in0.5 mm 0.00 in0.0 mm 0.38 in9.7 mm
12:35 PM 54.4°F12.4°C 42.8°F6.0°C 65% Calm Calm 5.0 mph8.0 kmh 29.96 in1014.6 mb 0.02 in0.5 mm 0.00 in0.0 mm 0.39 in9.9 mm
12:40 PM 54.5°F12.5°C 42.9°F6.1°C 65% Calm Calm 5.0 mph8.0 kmh 29.95 in1014.2 mb 0.02 in0.5 mm 0.00 in0.0 mm 0.39 in9.9 mm
12:45 PM 54.6°F12.6°C 43.0°F6.1°C 65% Calm Calm 2.0 mph3.2 kmh 29.95 in1014.2 mb 0.03 in0.8 mm 0.12 in3.0 mm 0.39 in9.9 mm
12:50 PM 54.7°F12.6°C 43.1°F6.2°C 65% 1.0 mph WSW1.6 kmh WSW 4.0 mph6.4 kmh 29.95 in1014.2 mb 0.04 in1.0 mm 0.12 in3.0 mm 0.40 in10.2 mm
12:55 PM 54.7°F12.6°C 43.1°F6.2°C 65% 2.0 mph WSW3.2 kmh WSW 4.0 mph6.4 kmh 29.95 in1014.2 mb 0.04 in1.0 mm 0.00 in0.0 mm 0.40 in10.2 mm
01:00 PM 54.6°F12.6°C 43.0°F6.1°C 65% 1.0 mph SW1.6 kmh SW 6.0 mph9.7 kmh 29.95 in1014.2 mb 0.03 in0.8 mm 0.00 in0.0 mm 0.40 in10.2 mm
01:05 PM 54.6°F12.6°C 43.0°F6.1°C 65% Calm Calm 5.0 mph8.0 kmh 29.96 in1014.6 mb 0.03 in0.8 mm 0.00 in0.0 mm 0.40 in10.2 mm
01:10 PM 54.6°F12.6°C 43.0°F6.1°C 65% 5.0 mph SW8.0 kmh SW 6.0 mph9.7 kmh 29.96 in1014.6 mb 0.03 in0.8 mm 0.00 in0.0 mm 0.40 in10.2 mm
01:15 PM 54.6°F12.6°C 43.0°F6.1°C 65% Calm Calm 6.0 mph9.7 kmh 29.97 in1014.9 mb 0.02 in0.5 mm 0.00 in0.0 mm 0.40 in10.2 mm
01:20 PM 54.5°F12.5°C 42.9°F6.1°C 65% 4.0 mph SW6.4 kmh SW 5.0 mph8.0 kmh 29.97 in1014.9 mb 0.02 in0.5 mm 0.00 in0.0 mm 0.40 in10.2 mm
01:25 PM 54.5°F12.5°C 42.9°F6.1°C 65% Calm Calm 4.0 mph6.4 kmh 29.96 in1014.6 mb 0.02 in0.5 mm 0.00 in0.0 mm 0.40 in10.2 mm
01:30 PM 54.4°F12.4°C 42.8°F6.0°C 65% Calm Calm -- 29.97 in1014.9 mb 0.02 in0.5 mm 0.00 in0.0 mm 0.40 in10.2 mm
01:35 PM 54.3°F12.4°C 42.7°F5.9°C 65% Calm Calm -- 29.98 in1015.2 mb 0.02 in0.5 mm 0.00 in0.0 mm 0.40 in10.2 mm
01:40 PM 54.4°F12.4°C 42.8°F6.0°C 65% Calm Calm 3.0 mph4.8 kmh 29.98 in1015.2 mb 0.02 in0.5 mm 0.00 in0.0 mm 0.40 in10.2 mm
01:45 PM 54.3°F12.4°C 42.7°F5.9°C 65% Calm Calm -- 29.98 in1015.2 mb 0.01 in0.3 mm 0.00 in0.0 mm 0.40 in10.2 mm
01:50 PM 54.3°F12.4°C 42.7°F5.9°C 65% Calm Calm -- 29.98 in1015.2 mb 0.00 in0.0 mm 0.00 in0.0 mm 0.40 in10.2 mm
01:55 PM 54.4°F12.4°C 42.8°F6.0°C 65% Calm Calm -- 29.98 in1015.2 mb 0.00 in0.0 mm 0.00 in0.0 mm 0.40 in10.2 mm
02:00 PM 54.5°F12.5°C 42.9°F6.1°C 65% Calm Calm -- 29.99 in1015.6 mb 0.00 in0.0 mm 0.00 in0.0 mm 0.40 in10.2 mm
02:05 PM 54.6°F12.6°C 43.0°F6.1°C 65% Calm Calm -- 29.99 in1015.6 mb 0.00 in0.0 mm 0.00 in0.0 mm 0.40 in10.2 mm
02:10 PM 54.6°F12.6°C 42.6°F5.9°C 64% 2.0 mph SW3.2 kmh SW 5.0 mph8.0 kmh 29.99 in1015.6 mb 0.00 in0.0 mm 0.00 in0.0 mm 0.40 in10.2 mm
02:15 PM 54.7°F12.6°C 42.7°F5.9°C 64% Calm Calm 4.0 mph6.4 kmh 29.99 in1015.6 mb 0.00 in0.0 mm 0.00 in0.0 mm 0.40 in10.2 mm
02:20 PM 54.9°F12.7°C 42.9°F6.1°C 64% Calm Calm -- 29.99 in1015.6 mb 0.00 in0.0 mm 0.00 in0.0 mm 0.40 in10.2 mm
02:25 PM 54.9°F12.7°C 42.9°F6.1°C 64% Calm Calm -- 29.99 in1015.6 mb 0.00 in0.0 mm 0.00 in0.0 mm 0.40 in10.2 mm
02:30 PM 55.0°F12.8°C 43.0°F6.1°C 64% 5.0 mph SW8.0 kmh SW 6.0 mph9.7 kmh 29.99 in1015.6 mb 0.00 in0.0 mm 0.00 in0.0 mm 0.40 in10.2 mm
02:35 PM 55.1°F12.8°C 43.1°F6.2°C 64% 3.0 mph SSW4.8 kmh SSW 6.0 mph9.7 kmh 29.99 in1015.6 mb 0.00 in0.0 mm 0.00 in0.0 mm 0.40 in10.2 mm
02:40 PM 55.0°F12.8°C 43.0°F6.1°C 64% Calm Calm 4.0 mph6.4 kmh 29.99 in1015.6 mb 0.00 in0.0 mm 0.00 in0.0 mm 0.40 in10.2 mm
02:45 PM 55.1°F12.8°C 43.1°F6.2°C 64% Calm Calm 3.0 mph4.8 kmh 29.99 in1015.6 mb 0.00 in0.0 mm 0.00 in0.0 mm 0.40 in10.2 mm
02:50 PM 55.2°F12.9°C 43.2°F6.2°C 64% Calm Calm 4.0 mph6.4 kmh 29.99 in1015.6 mb 0.00 in0.0 mm 0.00 in0.0 mm 0.40 in10.2 mm
02:55 PM 55.3°F12.9°C 43.3°F6.3°C 64% Calm Calm 3.0 mph4.8 kmh 29.99 in1015.6 mb 0.00 in0.0 mm 0.00 in0.0 mm 0.40 in10.2 mm
03:00 PM 55.3°F12.9°C 43.3°F6.3°C 64% 1.0 mph SSW1.6 kmh SSW 5.0 mph8.0 kmh 30.00 in1015.9 mb 0.00 in0.0 mm 0.00 in0.0 mm 0.40 in10.2 mm
03:05 PM 55.5°F13.1°C 43.5°F6.4°C 64% Calm Calm 6.0 mph9.7 kmh 29.99 in1015.6 mb 0.00 in0.0 mm 0.00 in0.0 mm 0.40 in10.2 mm
03:10 PM 55.6°F13.1°C 43.6°F6.4°C 64% Calm Calm -- 29.99 in1015.6 mb 0.00 in0.0 mm 0.00 in0.0 mm 0.40 in10.2 mm
03:15 PM 55.7°F13.2°C 43.7°F6.5°C 64% Calm Calm 4.0 mph6.4 kmh 29.99 in1015.6 mb 0.00 in0.0 mm 0.00 in0.0 mm 0.40 in10.2 mm
03:20 PM 55.7°F13.2°C 43.7°F6.5°C 64% Calm Calm 4.0 mph6.4 kmh 29.99 in1015.6 mb 0.00 in0.0 mm 0.00 in0.0 mm 0.40 in10.2 mm
03:25 PM 55.7°F13.2°C 43.7°F6.5°C 64% Calm Calm -- 29.99 in1015.6 mb 0.00 in0.0 mm 0.00 in0.0 mm 0.40 in10.2 mm
03:30 PM 55.7°F13.2°C 43.7°F6.5°C 64% Calm Calm 4.0 mph6.4 kmh 29.99 in1015.6 mb 0.00 in0.0 mm 0.00 in0.0 mm 0.40 in10.2 mm
03:35 PM 55.7°F13.2°C 43.7°F6.5°C 64% Calm Calm 6.0 mph9.7 kmh 29.98 in1015.2 mb 0.00 in0.0 mm 0.00 in0.0 mm 0.40 in10.2 mm
03:40 PM 55.9°F13.3°C 43.9°F6.6°C 64% Calm Calm 6.0 mph9.7 kmh 29.99 in1015.6 mb 0.01 in0.3 mm 0.12 in3.0 mm 0.41 in10.4 mm
03:45 PM 56.1°F13.4°C 44.0°F6.7°C 64% Calm Calm 6.0 mph9.7 kmh 29.98 in1015.2 mb 0.01 in0.3 mm 0.00 in0.0 mm 0.41 in10.4 mm
03:50 PM 56.2°F13.4°C 44.1°F6.7°C 64% 6.0 mph WSW9.7 kmh WSW 7.0 mph11.3 kmh 29.98 in1015.2 mb 0.01 in0.3 mm 0.00 in0.0 mm 0.41 in10.4 mm
03:55 PM 56.3°F13.5°C 44.2°F6.8°C 64% 1.0 mph SW1.6 kmh SW 9.0 mph14.5 kmh 29.98 in1015.2 mb 0.01 in0.3 mm 0.00 in0.0 mm 0.41 in10.4 mm
04:00 PM 56.4°F13.6°C 44.3°F6.8°C 64% Calm Calm 10.0 mph16.1 kmh 29.99 in1015.6 mb 0.01 in0.3 mm 0.00 in0.0 mm 0.41 in10.4 mm
04:05 PM 56.4°F13.6°C 44.3°F6.8°C 64% 2.0 mph SW3.2 kmh SW 6.0 mph9.7 kmh 29.98 in1015.2 mb 0.01 in0.3 mm 0.00 in0.0 mm 0.41 in10.4 mm
04:10 PM 56.6°F13.7°C 44.5°F6.9°C 64% 1.0 mph SW1.6 kmh SW 7.0 mph11.3 kmh 29.98 in1015.2 mb 0.01 in0.3 mm 0.00 in0.0 mm 0.41 in10.4 mm
04:15 PM 56.5°F13.6°C 44.4°F6.9°C 64% 2.0 mph SW3.2 kmh SW 10.0 mph16.1 kmh 29.98 in1015.2 mb 0.01 in0.3 mm 0.00 in0.0 mm 0.41 in10.4 mm
04:20 PM 56.6°F13.7°C 44.5°F6.9°C 64% 5.0 mph SW8.0 kmh SW 10.0 mph16.1 kmh 29.98 in1015.2 mb 0.01 in0.3 mm 0.00 in0.0 mm 0.41 in10.4 mm
04:25 PM 56.7°F13.7°C 44.6°F7.0°C 64% 7.0 mph WSW11.3 kmh WSW 7.0 mph11.3 kmh 29.98 in1015.2 mb 0.01 in0.3 mm 0.00 in0.0 mm 0.41 in10.4 mm
04:30 PM 56.8°F13.8°C 44.7°F7.1°C 64% 10.0 mph WSW16.1 kmh WSW 12.0 mph19.3 kmh 29.99 in1015.6 mb 0.01 in0.3 mm 0.00 in0.0 mm 0.41 in10.4 mm
04:35 PM 56.7°F13.7°C 45.0°F7.2°C 65% 3.0 mph WSW4.8 kmh WSW 12.0 mph19.3 kmh 29.98 in1015.2 mb 0.01 in0.3 mm 0.00 in0.0 mm 0.41 in10.4 mm
04:40 PM 56.6°F13.7°C 44.9°F7.2°C 65% 7.0 mph WSW11.3 kmh WSW 16.0 mph25.7 kmh 29.99 in1015.6 mb 0.00 in0.0 mm 0.00 in0.0 mm 0.41 in10.4 mm
04:45 PM 56.6°F13.7°C 45.3°F7.4°C 66% 3.0 mph WSW4.8 kmh WSW 14.0 mph22.5 kmh 29.99 in1015.6 mb 0.00 in0.0 mm 0.00 in0.0 mm 0.41 in10.4 mm
04:50 PM 56.4°F13.6°C 45.5°F7.5°C 67% 4.0 mph WSW6.4 kmh WSW 12.0 mph19.3 kmh 29.99 in1015.6 mb 0.00 in0.0 mm 0.00 in0.0 mm 0.41 in10.4 mm
04:55 PM 56.4°F13.6°C 45.5°F7.5°C 67% 1.0 mph SW1.6 kmh SW 9.0 mph14.5 kmh 29.99 in1015.6 mb 0.00 in0.0 mm 0.00 in0.0 mm 0.41 in10.4 mm
05:00 PM 56.5°F13.6°C 46.0°F7.8°C 68% 1.0 mph WSW1.6 kmh WSW 6.0 mph9.7 kmh 29.99 in1015.6 mb 0.00 in0.0 mm 0.00 in0.0 mm 0.41 in10.4 mm
05:05 PM 56.5°F13.6°C 46.0°F7.8°C 68% 2.0 mph WSW3.2 kmh WSW 9.0 mph14.5 kmh 29.99 in1015.6 mb 0.00 in0.0 mm 0.00 in0.0 mm 0.41 in10.4 mm
05:10 PM 56.3°F13.5°C 46.2°F7.9°C 69% 8.0 mph WSW12.9 kmh WSW 9.0 mph14.5 kmh 29.99 in1015.6 mb 0.00 in0.0 mm 0.00 in0.0 mm 0.41 in10.4 mm
05:15 PM 56.3°F13.5°C 46.2°F7.9°C 69% 4.0 mph WSW6.4 kmh WSW 9.0 mph14.5 kmh 29.98 in1015.2 mb 0.00 in0.0 mm 0.00 in0.0 mm 0.41 in10.4 mm
05:20 PM 56.3°F13.5°C 46.2°F7.9°C 69% 3.0 mph WSW4.8 kmh WSW 5.0 mph8.0 kmh 29.99 in1015.6 mb 0.00 in0.0 mm 0.00 in0.0 mm 0.41 in10.4 mm
05:25 PM 56.3°F13.5°C 46.6°F8.1°C 70% Calm Calm 9.0 mph14.5 kmh 29.99 in1015.6 mb 0.00 in0.0 mm 0.00 in0.0 mm 0.41 in10.4 mm
05:30 PM 56.4°F13.6°C 46.7°F8.2°C 70% 3.0 mph SW4.8 kmh SW 5.0 mph8.0 kmh 29.99 in1015.6 mb 0.00 in0.0 mm 0.00 in0.0 mm 0.41 in10.4 mm
05:35 PM 56.4°F13.6°C 47.1°F8.4°C 71% 4.0 mph WSW6.4 kmh WSW 8.0 mph12.9 kmh 29.99 in1015.6 mb 0.00 in0.0 mm 0.00 in0.0 mm 0.41 in10.4 mm
05:40 PM 56.4°F13.6°C 47.1°F8.4°C 71% Calm Calm 7.0 mph11.3 kmh 29.99 in1015.6 mb 0.00 in0.0 mm 0.00 in0.0 mm 0.41 in10.4 mm
05:45 PM 56.4°F13.6°C 47.1°F8.4°C 71% 2.0 mph SW3.2 kmh SW 12.0 mph19.3 kmh 29.99 in1015.6 mb 0.00 in0.0 mm 0.00 in0.0 mm 0.41 in10.4 mm
05:50 PM 56.3°F13.5°C 47.0°F8.3°C 71% 10.0 mph SW16.1 kmh SW 12.0 mph19.3 kmh 29.99 in1015.6 mb 0.00 in0.0 mm 0.00 in0.0 mm 0.41 in10.4 mm
05:55 PM 56.4°F13.6°C 47.4°F8.6°C 72% 4.0 mph SW6.4 kmh SW 9.0 mph14.5 kmh 29.99 in1015.6 mb 0.00 in0.0 mm 0.00 in0.0 mm 0.41 in10.4 mm
06:00 PM 56.4°F13.6°C 47.4°F8.6°C 72% Calm Calm 6.0 mph9.7 kmh 29.99 in1015.6 mb 0.00 in0.0 mm 0.00 in0.0 mm 0.41 in10.4 mm
06:05 PM 56.6°F13.7°C 47.6°F8.7°C 72% 7.0 mph SW11.3 kmh SW 7.0 mph11.3 kmh 29.99 in1015.6 mb 0.00 in0.0 mm 0.00 in0.0 mm 0.41 in10.4 mm
06:10 PM 56.6°F13.7°C 47.6°F8.7°C 72% 4.0 mph WSW6.4 kmh WSW 7.0 mph11.3 kmh 29.99 in1015.6 mb 0.00 in0.0 mm 0.00 in0.0 mm 0.41 in10.4 mm
06:15 PM 56.6°F13.7°C 47.6°F8.7°C 72% 2.0 mph SW3.2 kmh SW 9.0 mph14.5 kmh 29.99 in1015.6 mb 0.00 in0.0 mm 0.00 in0.0 mm 0.41 in10.4 mm
06:20 PM 56.7°F13.7°C 47.7°F8.7°C 72% 6.0 mph WSW9.7 kmh WSW 7.0 mph11.3 kmh 30.00 in1015.9 mb 0.00 in0.0 mm 0.00 in0.0 mm 0.41 in10.4 mm
06:25 PM 56.6°F13.7°C 47.6°F8.7°C 72% 5.0 mph SW8.0 kmh SW 9.0 mph14.5 kmh 29.99 in1015.6 mb 0.00 in0.0 mm 0.00 in0.0 mm 0.41 in10.4 mm
06:30 PM 56.6°F13.7°C 47.6°F8.7°C 72% Calm Calm 10.0 mph16.1 kmh 29.99 in1015.6 mb 0.00 in0.0 mm 0.00 in0.0 mm 0.41 in10.4 mm
06:35 PM 56.6°F13.7°C 47.6°F8.7°C 72% 3.0 mph WSW4.8 kmh WSW 9.0 mph14.5 kmh 29.99 in1015.6 mb 0.00 in0.0 mm 0.00 in0.0 mm 0.41 in10.4 mm
06:40 PM 56.5°F13.6°C 47.5°F8.6°C 72% 2.0 mph WSW3.2 kmh WSW 12.0 mph19.3 kmh 29.99 in1015.6 mb 0.00 in0.0 mm 0.00 in0.0 mm 0.41 in10.4 mm
06:45 PM 56.6°F13.7°C 47.6°F8.7°C 72% 2.0 mph WSW3.2 kmh WSW 6.0 mph9.7 kmh 30.00 in1015.9 mb 0.00 in0.0 mm 0.00 in0.0 mm 0.41 in10.4 mm
06:50 PM 56.5°F13.6°C 47.5°F8.6°C 72% 8.0 mph WSW12.9 kmh WSW 10.0 mph16.1 kmh 30.00 in1015.9 mb 0.00 in0.0 mm 0.00 in0.0 mm 0.41 in10.4 mm
06:55 PM 56.4°F13.6°C 47.8°F8.8°C 73% 5.0 mph WSW8.0 kmh WSW 10.0 mph16.1 kmh 30.00 in1015.9 mb 0.00 in0.0 mm 0.00 in0.0 mm 0.41 in10.4 mm
07:00 PM 56.4°F13.6°C 47.8°F8.8°C 73% 4.0 mph SW6.4 kmh SW 9.0 mph14.5 kmh 30.00 in1015.9 mb 0.00 in0.0 mm 0.00 in0.0 mm 0.41 in10.4 mm
07:05 PM 56.4°F13.6°C 47.8°F8.8°C 73% 4.0 mph WSW6.4 kmh WSW 6.0 mph9.7 kmh 30.00 in1015.9 mb 0.00 in0.0 mm 0.00 in0.0 mm 0.41 in10.4 mm
07:10 PM 56.3°F13.5°C 47.7°F8.7°C 73% Calm Calm 9.0 mph14.5 kmh 30.01 in1016.3 mb 0.00 in0.0 mm 0.00 in0.0 mm 0.41 in10.4 mm
07:15 PM 56.3°F13.5°C 47.7°F8.7°C 73% 4.0 mph W6.4 kmh W 10.0 mph16.1 kmh 30.01 in1016.3 mb 0.00 in0.0 mm 0.00 in0.0 mm 0.41 in10.4 mm
07:20 PM 56.3°F13.5°C 47.7°F8.7°C 73% 3.0 mph WSW4.8 kmh WSW 7.0 mph11.3 kmh 30.01 in1016.3 mb 0.00 in0.0 mm 0.00 in0.0 mm 0.41 in10.4 mm
07:25 PM 56.3°F13.5°C 47.7°F8.7°C 73% 3.0 mph WSW4.8 kmh WSW 10.0 mph16.1 kmh 30.01 in1016.3 mb 0.00 in0.0 mm 0.00 in0.0 mm 0.41 in10.4 mm
07:30 PM 56.2°F13.4°C 47.6°F8.7°C 73% 3.0 mph SW4.8 kmh SW 7.0 mph11.3 kmh 30.00 in1015.9 mb 0.00 in0.0 mm 0.00 in0.0 mm 0.41 in10.4 mm
07:35 PM 56.1°F13.4°C 47.5°F8.6°C 73% 2.0 mph WSW3.2 kmh WSW 10.0 mph16.1 kmh 30.00 in1015.9 mb 0.00 in0.0 mm 0.00 in0.0 mm 0.41 in10.4 mm
07:40 PM 56.1°F13.4°C 47.5°F8.6°C 73% 4.0 mph SW6.4 kmh SW 10.0 mph16.1 kmh 30.00 in1015.9 mb 0.00 in0.0 mm 0.00 in0.0 mm 0.41 in10.4 mm
07:45 PM 56.0°F13.3°C 47.4°F8.6°C 73% Calm Calm 7.0 mph11.3 kmh 30.00 in1015.9 mb 0.00 in0.0 mm 0.00 in0.0 mm 0.41 in10.4 mm
07:50 PM 55.9°F13.3°C 47.3°F8.5°C 73% 3.0 mph SW4.8 kmh SW 7.0 mph11.3 kmh 30.00 in1015.9 mb 0.00 in0.0 mm 0.00 in0.0 mm 0.41 in10.4 mm
07:55 PM 55.8°F13.2°C 47.2°F8.4°C 73% Calm Calm 6.0 mph9.7 kmh 30.00 in1015.9 mb 0.00 in0.0 mm 0.00 in0.0 mm 0.41 in10.4 mm
08:00 PM 55.7°F13.2°C 46.8°F8.2°C 72% 3.0 mph SW4.8 kmh SW 6.0 mph9.7 kmh 30.01 in1016.3 mb 0.00 in0.0 mm 0.00 in0.0 mm 0.41 in10.4 mm
08:05 PM 55.5°F13.1°C 46.6°F8.1°C 72% 3.0 mph WSW4.8 kmh WSW 10.0 mph16.1 kmh 30.01 in1016.3 mb 0.00 in0.0 mm 0.00 in0.0 mm 0.41 in10.4 mm
08:10 PM 55.4°F13.0°C 46.5°F8.1°C 72% 2.0 mph WSW3.2 kmh WSW 8.0 mph12.9 kmh 30.01 in1016.3 mb 0.00 in0.0 mm 0.00 in0.0 mm 0.41 in10.4 mm
08:15 PM 55.4°F13.0°C 46.5°F8.1°C 72% Calm Calm 7.0 mph11.3 kmh 30.01 in1016.3 mb 0.00 in0.0 mm 0.00 in0.0 mm 0.41 in10.4 mm
08:20 PM 55.4°F13.0°C 46.8°F8.2°C 73% 3.0 mph WSW4.8 kmh WSW 9.0 mph14.5 kmh 30.01 in1016.3 mb 0.00 in0.0 mm 0.00 in0.0 mm 0.41 in10.4 mm
08:25 PM 55.4°F13.0°C 46.8°F8.2°C 73% 2.0 mph SW3.2 kmh SW 13.0 mph20.9 kmh 30.01 in1016.3 mb 0.00 in0.0 mm 0.00 in0.0 mm 0.41 in10.4 mm
08:30 PM 55.4°F13.0°C 46.8°F8.2°C 73% Calm Calm 9.0 mph14.5 kmh 30.01 in1016.3 mb 0.00 in0.0 mm 0.00 in0.0 mm 0.41 in10.4 mm
08:35 PM 55.4°F13.0°C 46.8°F8.2°C 73% 12.0 mph WSW19.3 kmh WSW 13.0 mph20.9 kmh 30.01 in1016.3 mb 0.00 in0.0 mm 0.00 in0.0 mm 0.41 in10.4 mm
08:40 PM 55.4°F13.0°C 46.8°F8.2°C 73% 6.0 mph WSW9.7 kmh WSW 14.0 mph22.5 kmh 30.01 in1016.3 mb 0.00 in0.0 mm 0.00 in0.0 mm 0.41 in10.4 mm
08:45 PM 55.5°F13.1°C 46.9°F8.3°C 73% 3.0 mph SW4.8 kmh SW 11.0 mph17.7 kmh 30.01 in1016.3 mb 0.00 in0.0 mm 0.00 in0.0 mm 0.41 in10.4 mm
08:50 PM 55.4°F13.0°C 46.8°F8.2°C 73% 3.0 mph SW4.8 kmh SW 11.0 mph17.7 kmh 30.01 in1016.3 mb 0.00 in0.0 mm 0.00 in0.0 mm 0.41 in10.4 mm
08:55 PM 55.4°F13.0°C 46.8°F8.2°C 73% 3.0 mph WSW4.8 kmh WSW 10.0 mph16.1 kmh 30.01 in1016.3 mb 0.00 in0.0 mm 0.00 in0.0 mm 0.41 in10.4 mm
09:00 PM 55.4°F13.0°C 46.8°F8.2°C 73% 5.0 mph WSW8.0 kmh WSW 14.0 mph22.5 kmh 30.02 in1016.6 mb 0.00 in0.0 mm 0.00 in0.0 mm 0.41 in10.4 mm
09:05 PM 55.3°F12.9°C 46.7°F8.2°C 73% 4.0 mph SW6.4 kmh SW 11.0 mph17.7 kmh 30.01 in1016.3 mb 0.00 in0.0 mm 0.00 in0.0 mm 0.41 in10.4 mm
09:10 PM 55.3°F12.9°C 46.7°F8.2°C 73% 7.0 mph WSW11.3 kmh WSW 11.0 mph17.7 kmh 30.01 in1016.3 mb 0.00 in0.0 mm 0.00 in0.0 mm 0.41 in10.4 mm
09:15 PM 55.2°F12.9°C 46.6°F8.1°C 73% 5.0 mph WSW8.0 kmh WSW 15.0 mph24.1 kmh 30.01 in1016.3 mb 0.00 in0.0 mm 0.00 in0.0 mm 0.41 in10.4 mm
09:20 PM 55.1°F12.8°C 46.6°F8.1°C 73% 3.0 mph WSW4.8 kmh WSW 12.0 mph19.3 kmh 30.01 in1016.3 mb 0.00 in0.0 mm 0.00 in0.0 mm 0.41 in10.4 mm
09:25 PM 55.1°F12.8°C 46.6°F8.1°C 73% 6.0 mph WSW9.7 kmh WSW 7.0 mph11.3 kmh 30.01 in1016.3 mb 0.00 in0.0 mm 0.00 in0.0 mm 0.41 in10.4 mm
09:30 PM 55.0°F12.8°C 46.5°F8.1°C 73% 2.0 mph WSW3.2 kmh WSW 7.0 mph11.3 kmh 30.01 in1016.3 mb 0.00 in0.0 mm 0.00 in0.0 mm 0.41 in10.4 mm
09:35 PM 55.0°F12.8°C 46.1°F7.8°C 72% 4.0 mph WSW6.4 kmh WSW 11.0 mph17.7 kmh 30.01 in1016.3 mb 0.00 in0.0 mm 0.00 in0.0 mm 0.41 in10.4 mm
09:40 PM 54.9°F12.7°C 46.0°F7.8°C 72% 3.0 mph SW4.8 kmh SW 9.0 mph14.5 kmh 30.02 in1016.6 mb 0.00 in0.0 mm 0.00 in0.0 mm 0.41 in10.4 mm
09:45 PM 54.9°F12.7°C 46.0°F7.8°C 72% Calm Calm 7.0 mph11.3 kmh 30.02 in1016.6 mb 0.00 in0.0 mm 0.00 in0.0 mm 0.41 in10.4 mm
09:50 PM 54.9°F12.7°C 46.0°F7.8°C 72% 2.0 mph SW3.2 kmh SW 12.0 mph19.3 kmh 30.02 in1016.6 mb 0.00 in0.0 mm 0.00 in0.0 mm 0.41 in10.4 mm
09:55 PM 54.9°F12.7°C 46.0°F7.8°C 72% 10.0 mph WSW16.1 kmh WSW 10.0 mph16.1 kmh 30.02 in1016.6 mb 0.00 in0.0 mm 0.00 in0.0 mm 0.41 in10.4 mm
10:00 PM 54.9°F12.7°C 46.0°F7.8°C 72% 7.0 mph SW11.3 kmh SW 11.0 mph17.7 kmh 30.02 in1016.6 mb 0.00 in0.0 mm 0.00 in0.0 mm 0.41 in10.4 mm
10:05 PM 55.0°F12.8°C 46.1°F7.8°C 72% 6.0 mph SW9.7 kmh SW 10.0 mph16.1 kmh 30.02 in1016.6 mb 0.00 in0.0 mm 0.00 in0.0 mm 0.41 in10.4 mm
10:10 PM 55.0°F12.8°C 46.1°F7.8°C 72% 7.0 mph WSW11.3 kmh WSW 12.0 mph19.3 kmh 30.02 in1016.6 mb 0.00 in0.0 mm 0.00 in0.0 mm 0.41 in10.4 mm
10:15 PM 55.1°F12.8°C 46.2°F7.9°C 72% 2.0 mph WSW3.2 kmh WSW 13.0 mph20.9 kmh 30.02 in1016.6 mb 0.00 in0.0 mm 0.00 in0.0 mm 0.41 in10.4 mm
10:20 PM 55.1°F12.8°C 46.2°F7.9°C 72% 5.0 mph WSW8.0 kmh WSW 13.0 mph20.9 kmh 30.02 in1016.6 mb 0.00 in0.0 mm 0.00 in0.0 mm 0.41 in10.4 mm
10:25 PM 55.1°F12.8°C 46.2°F7.9°C 72% 7.0 mph SW11.3 kmh SW 9.0 mph14.5 kmh 30.02 in1016.6 mb 0.00 in0.0 mm 0.00 in0.0 mm 0.41 in10.4 mm
10:30 PM 55.2°F12.9°C 46.3°F7.9°C 72% 1.0 mph WSW1.6 kmh WSW 7.0 mph11.3 kmh 30.02 in1016.6 mb 0.00 in0.0 mm 0.00 in0.0 mm 0.41 in10.4 mm
10:35 PM 55.2°F12.9°C 46.3°F7.9°C 72% 3.0 mph WSW4.8 kmh WSW 10.0 mph16.1 kmh 30.02 in1016.6 mb 0.00 in0.0 mm 0.00 in0.0 mm 0.41 in10.4 mm
10:40 PM 55.2°F12.9°C 46.3°F7.9°C 72% 9.0 mph W14.5 kmh W 9.0 mph14.5 kmh 30.02 in1016.6 mb 0.00 in0.0 mm 0.00 in0.0 mm 0.41 in10.4 mm
10:45 PM 55.2°F12.9°C 46.3°F7.9°C 72% 5.0 mph SW8.0 kmh SW 10.0 mph16.1 kmh 30.02 in1016.6 mb 0.00 in0.0 mm 0.00 in0.0 mm 0.41 in10.4 mm
10:50 PM 55.2°F12.9°C 46.3°F7.9°C 72% 6.0 mph WSW9.7 kmh WSW 12.0 mph19.3 kmh 30.02 in1016.6 mb 0.00 in0.0 mm 0.00 in0.0 mm 0.41 in10.4 mm
10:55 PM 55.2°F12.9°C 46.3°F7.9°C 72% 5.0 mph WSW8.0 kmh WSW 14.0 mph22.5 kmh 30.02 in1016.6 mb 0.00 in0.0 mm 0.00 in0.0 mm 0.41 in10.4 mm
11:00 PM 55.3°F12.9°C 46.4°F8.0°C 72% 6.0 mph W9.7 kmh W 11.0 mph17.7 kmh 30.02 in1016.6 mb 0.00 in0.0 mm 0.00 in0.0 mm 0.41 in10.4 mm
11:05 PM 55.3°F12.9°C 46.0°F7.8°C 71% 5.0 mph WSW8.0 kmh WSW 10.0 mph16.1 kmh 30.02 in1016.6 mb 0.00 in0.0 mm 0.00 in0.0 mm 0.32 in8.1 mm
11:10 PM 55.2°F12.9°C 45.9°F7.7°C 71% 4.0 mph WSW6.4 kmh WSW 13.0 mph20.9 kmh 30.02 in1016.6 mb 0.00 in0.0 mm 0.00 in0.0 mm 0.32 in8.1 mm
11:15 PM 55.1°F12.8°C 45.8°F7.7°C 71% 1.0 mph W1.6 kmh W 10.0 mph16.1 kmh 30.02 in1016.6 mb 0.00 in0.0 mm 0.00 in0.0 mm 0.32 in8.1 mm
11:20 PM 55.1°F12.8°C 45.8°F7.7°C 71% 5.0 mph WSW8.0 kmh WSW 16.0 mph25.7 kmh 30.02 in1016.6 mb 0.00 in0.0 mm 0.00 in0.0 mm 0.32 in8.1 mm
11:25 PM 55.0°F12.8°C 45.7°F7.6°C 71% 2.0 mph SW3.2 kmh SW 12.0 mph19.3 kmh 30.02 in1016.6 mb 0.00 in0.0 mm 0.00 in0.0 mm 0.32 in8.1 mm
11:30 PM 54.9°F12.7°C 45.3°F7.4°C 70% 3.0 mph WSW4.8 kmh WSW 10.0 mph16.1 kmh 30.02 in1016.6 mb 0.00 in0.0 mm 0.00 in0.0 mm 0.32 in8.1 mm
11:35 PM 54.9°F12.7°C 45.3°F7.4°C 70% Calm Calm 9.0 mph14.5 kmh 30.02 in1016.6 mb 0.00 in0.0 mm 0.00 in0.0 mm 0.32 in8.1 mm
11:40 PM 54.9°F12.7°C 45.3°F7.4°C 70% 6.0 mph WSW9.7 kmh WSW 12.0 mph19.3 kmh 30.02 in1016.6 mb 0.00 in0.0 mm 0.00 in0.0 mm 0.32 in8.1 mm
11:45 PM 54.9°F12.7°C 45.3°F7.4°C 70% Calm Calm 10.0 mph16.1 kmh 30.03 in1016.9 mb 0.00 in0.0 mm 0.00 in0.0 mm 0.32 in8.1 mm
11:50 PM 54.9°F12.7°C 45.3°F7.4°C 70% 2.0 mph WSW3.2 kmh WSW 9.0 mph14.5 kmh 30.03 in1016.9 mb 0.00 in0.0 mm 0.00 in0.0 mm 0.32 in8.1 mm
11:55 PM 55.0°F12.8°C 45.3°F7.4°C 70% 7.0 mph WSW11.3 kmh WSW 12.0 mph19.3 kmh 30.03 in1016.9 mb 0.00 in0.0 mm 0.00 in0.0 mm 0.32 in8.1 mm